sensor_id;sensor_type;location;lat;lon;timestamp;P1;durP1;ratioP1;P2;durP2;ratioP2
23432;SDS011;41331;45.412;10.992;2023-02-13T00:00:47;12.45;;;6.25;;
23432;SDS011;41331;45.412;10.992;2023-02-13T00:03:15;9.68;;;5.70;;
23432;SDS011;41331;45.412;10.992;2023-02-13T00:05:44;11.07;;;6.10;;
23432;SDS011;41331;45.412;10.992;2023-02-13T00:08:11;9.10;;;5.22;;
23432;SDS011;41331;45.412;10.992;2023-02-13T00:10:38;11.40;;;6.40;;
23432;SDS011;41331;45.412;10.992;2023-02-13T00:13:06;11.10;;;6.00;;
23432;SDS011;41331;45.412;10.992;2023-02-13T00:15:33;10.25;;;5.55;;
23432;SDS011;41331;45.412;10.992;2023-02-13T00:18:01;12.02;;;6.25;;
23432;SDS011;41331;45.412;10.992;2023-02-13T00:20:29;14.20;;;5.90;;
23432;SDS011;41331;45.412;10.992;2023-02-13T00:22:57;10.82;;;5.80;;
23432;SDS011;41331;45.412;10.992;2023-02-13T00:25:25;11.73;;;5.70;;
23432;SDS011;41331;45.412;10.992;2023-02-13T00:27:52;11.85;;;6.32;;
23432;SDS011;41331;45.412;10.992;2023-02-13T00:30:21;11.57;;;5.18;;
23432;SDS011;41331;45.412;10.992;2023-02-13T00:32:50;9.70;;;5.25;;
23432;SDS011;41331;45.412;10.992;2023-02-13T00:35:17;9.20;;;4.93;;
23432;SDS011;41331;45.412;10.992;2023-02-13T00:37:44;9.52;;;5.30;;
23432;SDS011;41331;45.412;10.992;2023-02-13T00:40:14;14.07;;;6.35;;
23432;SDS011;41331;45.412;10.992;2023-02-13T00:42:42;21.85;;;10.20;;
23432;SDS011;41331;45.412;10.992;2023-02-13T00:45:09;39.45;;;16.40;;
23432;SDS011;41331;45.412;10.992;2023-02-13T00:47:39;36.05;;;15.63;;
23432;SDS011;41331;45.412;10.992;2023-02-13T00:50:07;27.25;;;13.00;;
23432;SDS011;41331;45.412;10.992;2023-02-13T00:52:35;21.90;;;10.75;;
23432;SDS011;41331;45.412;10.992;2023-02-13T00:55:03;17.48;;;9.50;;
23432;SDS011;41331;45.412;10.992;2023-02-13T00:57:30;15.32;;;8.27;;
23432;SDS011;41331;45.412;10.992;2023-02-13T00:59:58;14.48;;;7.95;;
23432;SDS011;41331;45.412;10.992;2023-02-13T01:02:25;13.02;;;6.90;;
23432;SDS011;41331;45.412;10.992;2023-02-13T01:04:54;13.82;;;6.38;;
23432;SDS011;41331;45.412;10.992;2023-02-13T01:07:21;10.57;;;5.45;;
23432;SDS011;41331;45.412;10.992;2023-02-13T01:09:49;10.70;;;6.00;;
23432;SDS011;41331;45.412;10.992;2023-02-13T01:12:19;11.63;;;5.93;;
23432;SDS011;41331;45.412;10.992;2023-02-13T01:14:46;10.73;;;5.35;;
23432;SDS011;41331;45.412;10.992;2023-02-13T01:17:14;10.02;;;5.15;;
23432;SDS011;41331;45.412;10.992;2023-02-13T01:19:42;10.00;;;5.60;;
23432;SDS011;41331;45.412;10.992;2023-02-13T01:22:09;13.50;;;5.88;;
23432;SDS011;41331;45.412;10.992;2023-02-13T01:24:36;10.40;;;6.05;;
23432;SDS011;41331;45.412;10.992;2023-02-13T01:27:04;8.85;;;5.13;;
23432;SDS011;41331;45.412;10.992;2023-02-13T01:29:31;9.80;;;5.72;;
23432;SDS011;41331;45.412;10.992;2023-02-13T01:32:00;10.48;;;5.88;;
23432;SDS011;41331;45.412;10.992;2023-02-13T01:34:31;9.23;;;5.65;;
23432;SDS011;41331;45.412;10.992;2023-02-13T01:36:59;10.13;;;5.47;;
23432;SDS011;41331;45.412;10.992;2023-02-13T01:39:26;11.80;;;5.95;;
23432;SDS011;41331;45.412;10.992;2023-02-13T01:41:54;11.68;;;6.35;;
23432;SDS011;41331;45.412;10.992;2023-02-13T01:47:25;12.55;;;6.47;;
23432;SDS011;41331;45.412;10.992;2023-02-13T01:50:00;11.40;;;6.60;;
23432;SDS011;41331;45.412;10.992;2023-02-13T01:52:37;13.50;;;7.00;;
23432;SDS011;41331;45.412;10.992;2023-02-13T01:55:07;14.68;;;6.90;;
23432;SDS011;41331;45.412;10.992;2023-02-13T01:57:38;12.27;;;6.90;;
23432;SDS011;41331;45.412;10.992;2023-02-13T02:00:09;11.85;;;6.53;;
23432;SDS011;41331;45.412;10.992;2023-02-13T02:02:50;13.07;;;7.25;;
23432;SDS011;41331;45.412;10.992;2023-02-13T02:05:26;12.05;;;7.18;;
23432;SDS011;41331;45.412;10.992;2023-02-13T02:07:54;18.63;;;7.28;;
23432;SDS011;41331;45.412;10.992;2023-02-13T02:10:25;12.82;;;6.88;;
23432;SDS011;41331;45.412;10.992;2023-02-13T02:15:37;17.67;;;8.15;;
23432;SDS011;41331;45.412;10.992;2023-02-13T02:18:12;18.17;;;8.15;;
23432;SDS011;41331;45.412;10.992;2023-02-13T02:35:22;14.38;;;7.95;;
23432;SDS011;41331;45.412;10.992;2023-02-13T02:43:22;16.88;;;8.30;;
23432;SDS011;41331;45.412;10.992;2023-02-13T02:46:05;22.02;;;9.35;;
23432;SDS011;41331;45.412;10.992;2023-02-13T02:48:42;22.60;;;8.98;;
23432;SDS011;41331;45.412;10.992;2023-02-13T02:54:27;18.63;;;8.80;;
23432;SDS011;41331;45.412;10.992;2023-02-13T02:57:21;20.38;;;9.50;;
23432;SDS011;41331;45.412;10.992;2023-02-13T03:00:15;19.55;;;10.55;;
23432;SDS011;41331;45.412;10.992;2023-02-13T03:03:04;21.50;;;10.05;;
23432;SDS011;41331;45.412;10.992;2023-02-13T03:05:53;22.77;;;10.75;;
23432;SDS011;41331;45.412;10.992;2023-02-13T03:08:37;22.15;;;10.18;;
23432;SDS011;41331;45.412;10.992;2023-02-13T03:11:26;23.10;;;10.57;;
23432;SDS011;41331;45.412;10.992;2023-02-13T03:14:14;23.67;;;10.35;;
23432;SDS011;41331;45.412;10.992;2023-02-13T03:16:49;25.65;;;10.93;;
23432;SDS011;41331;45.412;10.992;2023-02-13T03:39:47;17.10;;;7.82;;
23432;SDS011;41331;45.412;10.992;2023-02-13T03:45:14;14.30;;;7.75;;
23432;SDS011;41331;45.412;10.992;2023-02-13T03:48:04;14.50;;;7.53;;
23432;SDS011;41331;45.412;10.992;2023-02-13T03:50:58;16.27;;;8.20;;
23432;SDS011;41331;45.412;10.992;2023-02-13T03:53:28;15.88;;;7.70;;
23432;SDS011;41331;45.412;10.992;2023-02-13T03:56:00;14.45;;;7.95;;
23432;SDS011;41331;45.412;10.992;2023-02-13T03:58:49;14.73;;;8.10;;
23432;SDS011;41331;45.412;10.992;2023-02-13T04:01:38;13.15;;;8.40;;
23432;SDS011;41331;45.412;10.992;2023-02-13T04:09:28;13.45;;;7.50;;
23432;SDS011;41331;45.412;10.992;2023-02-13T04:17:29;14.10;;;7.30;;
23432;SDS011;41331;45.412;10.992;2023-02-13T04:20:00;12.57;;;7.13;;
23432;SDS011;41331;45.412;10.992;2023-02-13T04:22:27;16.08;;;8.05;;
23432;SDS011;41331;45.412;10.992;2023-02-13T04:24:55;14.35;;;7.75;;
23432;SDS011;41331;45.412;10.992;2023-02-13T04:27:22;11.40;;;7.20;;
23432;SDS011;41331;45.412;10.992;2023-02-13T04:29:53;14.93;;;8.15;;
23432;SDS011;41331;45.412;10.992;2023-02-13T04:32:20;12.35;;;6.97;;
23432;SDS011;41331;45.412;10.992;2023-02-13T04:34:47;13.10;;;7.25;;
23432;SDS011;41331;45.412;10.992;2023-02-13T04:37:15;12.68;;;7.22;;
23432;SDS011;41331;45.412;10.992;2023-02-13T04:39:42;14.68;;;7.72;;
23432;SDS011;41331;45.412;10.992;2023-02-13T04:42:09;14.35;;;7.97;;
23432;SDS011;41331;45.412;10.992;2023-02-13T04:44:37;15.77;;;7.68;;
23432;SDS011;41331;45.412;10.992;2023-02-13T04:47:05;17.35;;;8.05;;
23432;SDS011;41331;45.412;10.992;2023-02-13T04:49:32;14.65;;;8.13;;
23432;SDS011;41331;45.412;10.992;2023-02-13T04:52:00;13.75;;;8.43;;
23432;SDS011;41331;45.412;10.992;2023-02-13T04:54:27;18.13;;;10.77;;
23432;SDS011;41331;45.412;10.992;2023-02-13T04:56:54;15.50;;;8.65;;
23432;SDS011;41331;45.412;10.992;2023-02-13T04:59:22;15.95;;;8.25;;
23432;SDS011;41331;45.412;10.992;2023-02-13T05:01:49;13.20;;;7.78;;
23432;SDS011;41331;45.412;10.992;2023-02-13T05:04:16;14.65;;;7.63;;
23432;SDS011;41331;45.412;10.992;2023-02-13T05:06:44;17.23;;;8.57;;
23432;SDS011;41331;45.412;10.992;2023-02-13T05:09:11;13.38;;;7.97;;
23432;SDS011;41331;45.412;10.992;2023-02-13T05:11:39;14.50;;;8.15;;
23432;SDS011;41331;45.412;10.992;2023-02-13T05:14:06;13.95;;;8.02;;
23432;SDS011;41331;45.412;10.992;2023-02-13T05:16:34;15.27;;;8.50;;
23432;SDS011;41331;45.412;10.992;2023-02-13T05:19:01;13.88;;;7.57;;
23432;SDS011;41331;45.412;10.992;2023-02-13T05:21:29;13.93;;;8.25;;
23432;SDS011;41331;45.412;10.992;2023-02-13T05:24:15;15.25;;;8.45;;
23432;SDS011;41331;45.412;10.992;2023-02-13T05:26:45;15.27;;;7.70;;
23432;SDS011;41331;45.412;10.992;2023-02-13T05:29:12;14.13;;;8.00;;
23432;SDS011;41331;45.412;10.992;2023-02-13T05:31:50;15.48;;;8.60;;
23432;SDS011;41331;45.412;10.992;2023-02-13T05:34:22;12.43;;;8.15;;
23432;SDS011;41331;45.412;10.992;2023-02-13T05:36:51;16.00;;;8.35;;
23432;SDS011;41331;45.412;10.992;2023-02-13T05:39:19;15.60;;;8.50;;
23432;SDS011;41331;45.412;10.992;2023-02-13T05:41:47;14.13;;;7.95;;
23432;SDS011;41331;45.412;10.992;2023-02-13T05:44:15;13.52;;;8.20;;
23432;SDS011;41331;45.412;10.992;2023-02-13T05:46:43;15.90;;;8.15;;
23432;SDS011;41331;45.412;10.992;2023-02-13T05:49:11;14.45;;;8.10;;
23432;SDS011;41331;45.412;10.992;2023-02-13T05:51:41;16.90;;;8.40;;
23432;SDS011;41331;45.412;10.992;2023-02-13T05:54:09;16.13;;;8.15;;
23432;SDS011;41331;45.412;10.992;2023-02-13T05:56:36;18.23;;;9.18;;
23432;SDS011;41331;45.412;10.992;2023-02-13T05:59:03;21.05;;;8.77;;
23432;SDS011;41331;45.412;10.992;2023-02-13T06:01:31;16.48;;;8.48;;
23432;SDS011;41331;45.412;10.992;2023-02-13T06:03:58;15.35;;;8.50;;
23432;SDS011;41331;45.412;10.992;2023-02-13T06:06:29;16.00;;;8.73;;
23432;SDS011;41331;45.412;10.992;2023-02-13T06:08:57;16.67;;;8.38;;
23432;SDS011;41331;45.412;10.992;2023-02-13T06:11:24;21.10;;;9.18;;
23432;SDS011;41331;45.412;10.992;2023-02-13T06:13:51;18.08;;;8.73;;
23432;SDS011;41331;45.412;10.992;2023-02-13T06:16:19;18.33;;;8.98;;
23432;SDS011;41331;45.412;10.992;2023-02-13T06:18:46;16.67;;;9.55;;
23432;SDS011;41331;45.412;10.992;2023-02-13T06:21:14;19.42;;;9.55;;
23432;SDS011;41331;45.412;10.992;2023-02-13T06:23:41;16.42;;;9.30;;
23432;SDS011;41331;45.412;10.992;2023-02-13T06:26:09;14.57;;;8.95;;
23432;SDS011;41331;45.412;10.992;2023-02-13T06:28:36;20.48;;;9.45;;
23432;SDS011;41331;45.412;10.992;2023-02-13T06:31:04;18.63;;;9.68;;
23432;SDS011;41331;45.412;10.992;2023-02-13T06:33:31;16.73;;;9.25;;
23432;SDS011;41331;45.412;10.992;2023-02-13T06:35:59;16.75;;;10.23;;
23432;SDS011;41331;45.412;10.992;2023-02-13T06:38:26;24.63;;;10.27;;
23432;SDS011;41331;45.412;10.992;2023-02-13T06:40:57;26.00;;;11.25;;
23432;SDS011;41331;45.412;10.992;2023-02-13T06:43:26;30.30;;;12.15;;
23432;SDS011;41331;45.412;10.992;2023-02-13T06:45:54;24.20;;;12.38;;
23432;SDS011;41331;45.412;10.992;2023-02-13T06:48:21;26.52;;;12.20;;
23432;SDS011;41331;45.412;10.992;2023-02-13T06:50:49;25.33;;;10.80;;
23432;SDS011;41331;45.412;10.992;2023-02-13T06:53:18;22.92;;;11.25;;
23432;SDS011;41331;45.412;10.992;2023-02-13T06:55:51;18.85;;;10.82;;
23432;SDS011;41331;45.412;10.992;2023-02-13T06:58:20;20.42;;;11.15;;
23432;SDS011;41331;45.412;10.992;2023-02-13T07:00:49;24.70;;;11.63;;
23432;SDS011;41331;45.412;10.992;2023-02-13T07:03:17;28.13;;;13.55;;
23432;SDS011;41331;45.412;10.992;2023-02-13T07:05:47;26.65;;;12.95;;
23432;SDS011;41331;45.412;10.992;2023-02-13T07:08:18;23.55;;;12.48;;
23432;SDS011;41331;45.412;10.992;2023-02-13T07:10:48;24.52;;;12.43;;
23432;SDS011;41331;45.412;10.992;2023-02-13T07:13:15;25.05;;;13.65;;
23432;SDS011;41331;45.412;10.992;2023-02-13T07:15:42;24.23;;;12.75;;
23432;SDS011;41331;45.412;10.992;2023-02-13T07:18:13;21.17;;;12.88;;
23432;SDS011;41331;45.412;10.992;2023-02-13T07:20:40;24.65;;;12.90;;
23432;SDS011;41331;45.412;10.992;2023-02-13T07:23:07;21.52;;;13.65;;
23432;SDS011;41331;45.412;10.992;2023-02-13T07:25:37;30.30;;;14.55;;
23432;SDS011;41331;45.412;10.992;2023-02-13T07:28:05;26.42;;;13.82;;
23432;SDS011;41331;45.412;10.992;2023-02-13T07:30:33;23.73;;;13.82;;
23432;SDS011;41331;45.412;10.992;2023-02-13T07:33:02;23.17;;;13.63;;
23432;SDS011;41331;45.412;10.992;2023-02-13T07:35:30;24.02;;;14.20;;
23432;SDS011;41331;45.412;10.992;2023-02-13T07:37:59;26.55;;;14.82;;
23432;SDS011;41331;45.412;10.992;2023-02-13T07:40:26;21.77;;;13.75;;
23432;SDS011;41331;45.412;10.992;2023-02-13T07:42:54;24.40;;;14.25;;
23432;SDS011;41331;45.412;10.992;2023-02-13T07:45:22;28.83;;;14.38;;
23432;SDS011;41331;45.412;10.992;2023-02-13T07:47:50;25.20;;;14.18;;
23432;SDS011;41331;45.412;10.992;2023-02-13T07:50:17;31.95;;;14.55;;
23432;SDS011;41331;45.412;10.992;2023-02-13T07:52:51;23.45;;;13.57;;
23432;SDS011;41331;45.412;10.992;2023-02-13T07:55:22;28.58;;;13.20;;
23432;SDS011;41331;45.412;10.992;2023-02-13T07:57:50;30.48;;;13.27;;
23432;SDS011;41331;45.412;10.992;2023-02-13T08:00:17;23.52;;;13.07;;
23432;SDS011;41331;45.412;10.992;2023-02-13T08:02:45;19.95;;;12.73;;
23432;SDS011;41331;45.412;10.992;2023-02-13T08:05:13;23.35;;;12.63;;
23432;SDS011;41331;45.412;10.992;2023-02-13T08:07:41;19.00;;;12.10;;
23432;SDS011;41331;45.412;10.992;2023-02-13T08:10:10;23.83;;;12.40;;
23432;SDS011;41331;45.412;10.992;2023-02-13T08:12:57;23.45;;;12.50;;
23432;SDS011;41331;45.412;10.992;2023-02-13T08:15:24;29.17;;;12.88;;
23432;SDS011;41331;45.412;10.992;2023-02-13T08:17:52;24.58;;;12.52;;
23432;SDS011;41331;45.412;10.992;2023-02-13T08:20:19;23.85;;;13.27;;
23432;SDS011;41331;45.412;10.992;2023-02-13T08:22:47;18.92;;;12.43;;
23432;SDS011;41331;45.412;10.992;2023-02-13T08:25:14;22.25;;;12.40;;
23432;SDS011;41331;45.412;10.992;2023-02-13T08:27:42;23.73;;;13.15;;
23432;SDS011;41331;45.412;10.992;2023-02-13T08:30:09;26.88;;;12.45;;
23432;SDS011;41331;45.412;10.992;2023-02-13T08:32:38;23.15;;;12.68;;
23432;SDS011;41331;45.412;10.992;2023-02-13T08:35:20;23.73;;;12.65;;
23432;SDS011;41331;45.412;10.992;2023-02-13T08:37:49;18.77;;;12.30;;
23432;SDS011;41331;45.412;10.992;2023-02-13T08:40:16;18.15;;;12.02;;
23432;SDS011;41331;45.412;10.992;2023-02-13T08:42:44;19.08;;;11.75;;
23432;SDS011;41331;45.412;10.992;2023-02-13T08:45:11;21.23;;;12.18;;
23432;SDS011;41331;45.412;10.992;2023-02-13T08:47:38;18.60;;;12.07;;
23432;SDS011;41331;45.412;10.992;2023-02-13T08:50:06;19.48;;;11.35;;
23432;SDS011;41331;45.412;10.992;2023-02-13T08:52:34;21.83;;;11.40;;
23432;SDS011;41331;45.412;10.992;2023-02-13T08:55:01;19.00;;;11.98;;
23432;SDS011;41331;45.412;10.992;2023-02-13T08:57:29;19.08;;;12.75;;
23432;SDS011;41331;45.412;10.992;2023-02-13T08:59:57;19.95;;;12.50;;
23432;SDS011;41331;45.412;10.992;2023-02-13T09:02:25;20.30;;;12.63;;
23432;SDS011;41331;45.412;10.992;2023-02-13T09:04:52;17.50;;;12.27;;
23432;SDS011;41331;45.412;10.992;2023-02-13T09:07:20;23.92;;;12.90;;
23432;SDS011;41331;45.412;10.992;2023-02-13T09:09:47;20.08;;;12.18;;
23432;SDS011;41331;45.412;10.992;2023-02-13T09:12:14;25.63;;;12.07;;
23432;SDS011;41331;45.412;10.992;2023-02-13T09:14:42;17.90;;;12.07;;
23432;SDS011;41331;45.412;10.992;2023-02-13T09:17:13;26.63;;;12.45;;
23432;SDS011;41331;45.412;10.992;2023-02-13T09:19:44;20.83;;;12.10;;
23432;SDS011;41331;45.412;10.992;2023-02-13T09:22:13;18.23;;;12.35;;
23432;SDS011;41331;45.412;10.992;2023-02-13T09:24:43;20.60;;;12.57;;
23432;SDS011;41331;45.412;10.992;2023-02-13T09:27:10;22.52;;;11.82;;
23432;SDS011;41331;45.412;10.992;2023-02-13T09:29:39;18.40;;;10.13;;
23432;SDS011;41331;45.412;10.992;2023-02-13T09:32:06;18.77;;;10.60;;
23432;SDS011;41331;45.412;10.992;2023-02-13T09:34:34;26.85;;;11.70;;
23432;SDS011;41331;45.412;10.992;2023-02-13T09:37:01;21.58;;;11.25;;
23432;SDS011;41331;45.412;10.992;2023-02-13T09:39:28;23.33;;;12.50;;
23432;SDS011;41331;45.412;10.992;2023-02-13T09:41:56;20.00;;;11.63;;
23432;SDS011;41331;45.412;10.992;2023-02-13T09:44:38;19.52;;;11.63;;
23432;SDS011;41331;45.412;10.992;2023-02-13T09:47:21;24.67;;;12.38;;
23432;SDS011;41331;45.412;10.992;2023-02-13T09:50:06;27.73;;;12.80;;
23432;SDS011;41331;45.412;10.992;2023-02-13T09:52:37;18.25;;;11.32;;
23432;SDS011;41331;45.412;10.992;2023-02-13T09:57:57;20.33;;;13.00;;
23432;SDS011;41331;45.412;10.992;2023-02-13T10:00:36;20.52;;;13.27;;
23432;SDS011;41331;45.412;10.992;2023-02-13T10:11:49;24.35;;;15.57;;
23432;SDS011;41331;45.412;10.992;2023-02-13T10:15:07;30.33;;;16.90;;
23432;SDS011;41331;45.412;10.992;2023-02-13T10:17:25;26.38;;;15.50;;
23432;SDS011;41331;45.412;10.992;2023-02-13T10:19:59;30.50;;;15.45;;
23432;SDS011;41331;45.412;10.992;2023-02-13T10:22:37;27.17;;;15.30;;
23432;SDS011;41331;45.412;10.992;2023-02-13T10:25:14;25.08;;;16.52;;
23432;SDS011;41331;45.412;10.992;2023-02-13T10:27:48;24.02;;;17.02;;
23432;SDS011;41331;45.412;10.992;2023-02-13T10:38:29;22.58;;;15.98;;
23432;SDS011;41331;45.412;10.992;2023-02-13T10:43:47;25.40;;;16.90;;
23432;SDS011;41331;45.412;10.992;2023-02-13T10:49:07;25.15;;;15.20;;
23432;SDS011;41331;45.412;10.992;2023-02-13T10:51:54;22.40;;;15.27;;
23432;SDS011;41331;45.412;10.992;2023-02-13T10:57:27;30.45;;;15.23;;
23432;SDS011;41331;45.412;10.992;2023-02-13T11:00:03;24.33;;;14.63;;
23432;SDS011;41331;45.412;10.992;2023-02-13T11:02:36;22.10;;;15.02;;
23432;SDS011;41331;45.412;10.992;2023-02-13T11:05:18;21.02;;;13.05;;
23432;SDS011;41331;45.412;10.992;2023-02-13T11:07:49;22.55;;;13.45;;
23432;SDS011;41331;45.412;10.992;2023-02-13T11:10:20;22.98;;;14.52;;
23432;SDS011;41331;45.412;10.992;2023-02-13T11:12:49;23.80;;;14.25;;
23432;SDS011;41331;45.412;10.992;2023-02-13T11:15:25;22.58;;;14.68;;
23432;SDS011;41331;45.412;10.992;2023-02-13T11:17:56;21.50;;;14.00;;
23432;SDS011;41331;45.412;10.992;2023-02-13T11:20:33;24.27;;;14.23;;
23432;SDS011;41331;45.412;10.992;2023-02-13T11:23:14;22.35;;;14.75;;
23432;SDS011;41331;45.412;10.992;2023-02-13T11:25:54;24.33;;;14.73;;
23432;SDS011;41331;45.412;10.992;2023-02-13T11:28:26;22.95;;;14.85;;
23432;SDS011;41331;45.412;10.992;2023-02-13T11:37:06;25.10;;;15.23;;
23432;SDS011;41331;45.412;10.992;2023-02-13T11:39:58;25.02;;;14.02;;
23432;SDS011;41331;45.412;10.992;2023-02-13T11:42:43;23.92;;;14.80;;
23432;SDS011;41331;45.412;10.992;2023-02-13T11:45:19;22.17;;;15.27;;
23432;SDS011;41331;45.412;10.992;2023-02-13T11:47:49;23.02;;;14.63;;
23432;SDS011;41331;45.412;10.992;2023-02-13T11:50:22;23.73;;;15.07;;
23432;SDS011;41331;45.412;10.992;2023-02-13T11:52:57;27.75;;;15.35;;
23432;SDS011;41331;45.412;10.992;2023-02-13T12:06:11;23.00;;;14.30;;
23432;SDS011;41331;45.412;10.992;2023-02-13T12:08:43;24.05;;;14.98;;
23432;SDS011;41331;45.412;10.992;2023-02-13T12:11:35;24.45;;;15.38;;
23432;SDS011;41331;45.412;10.992;2023-02-13T12:14:13;26.90;;;15.52;;
23432;SDS011;41331;45.412;10.992;2023-02-13T12:17:14;26.65;;;14.88;;
23432;SDS011;41331;45.412;10.992;2023-02-13T12:19:57;28.08;;;16.02;;
23432;SDS011;41331;45.412;10.992;2023-02-13T12:25:26;24.83;;;15.02;;
23432;SDS011;41331;45.412;10.992;2023-02-13T12:41:04;21.73;;;14.18;;
23432;SDS011;41331;45.412;10.992;2023-02-13T12:43:52;24.08;;;14.98;;
23432;SDS011;41331;45.412;10.992;2023-02-13T12:55:03;22.88;;;15.65;;
23432;SDS011;41331;45.412;10.992;2023-02-13T13:23:01;24.83;;;15.82;;
23432;SDS011;41331;45.412;10.992;2023-02-13T13:28:21;25.52;;;16.05;;
23432;SDS011;41331;45.412;10.992;2023-02-13T13:30:50;24.15;;;16.02;;
23432;SDS011;41331;45.412;10.992;2023-02-13T13:33:20;28.40;;;18.25;;
23432;SDS011;41331;45.412;10.992;2023-02-13T13:38:46;27.60;;;16.92;;
23432;SDS011;41331;45.412;10.992;2023-02-13T13:42:04;27.50;;;16.15;;
23432;SDS011;41331;45.412;10.992;2023-02-13T13:50:16;24.77;;;15.80;;
23432;SDS011;41331;45.412;10.992;2023-02-13T14:03:56;25.88;;;16.48;;
23432;SDS011;41331;45.412;10.992;2023-02-13T14:06:26;26.38;;;16.75;;
23432;SDS011;41331;45.412;10.992;2023-02-13T14:09:57;27.63;;;16.10;;
23432;SDS011;41331;45.412;10.992;2023-02-13T14:14:56;28.15;;;15.63;;
23432;SDS011;41331;45.412;10.992;2023-02-13T14:17:58;26.40;;;15.95;;
23432;SDS011;41331;45.412;10.992;2023-02-13T14:20:30;27.58;;;16.88;;
23432;SDS011;41331;45.412;10.992;2023-02-13T14:23:11;28.58;;;16.85;;
23432;SDS011;41331;45.412;10.992;2023-02-13T14:25:40;23.95;;;15.38;;
23432;SDS011;41331;45.412;10.992;2023-02-13T14:28:17;25.90;;;15.85;;
23432;SDS011;41331;45.412;10.992;2023-02-13T14:30:50;25.02;;;16.45;;
23432;SDS011;41331;45.412;10.992;2023-02-13T14:33:26;26.25;;;17.08;;
23432;SDS011;41331;45.412;10.992;2023-02-13T14:36:00;26.88;;;17.38;;
23432;SDS011;41331;45.412;10.992;2023-02-13T14:38:32;25.40;;;16.92;;
23432;SDS011;41331;45.412;10.992;2023-02-13T14:41:02;30.55;;;16.02;;
23432;SDS011;41331;45.412;10.992;2023-02-13T14:43:33;27.40;;;17.05;;
23432;SDS011;41331;45.412;10.992;2023-02-13T14:46:38;28.50;;;17.23;;
23432;SDS011;41331;45.412;10.992;2023-02-13T14:49:11;33.20;;;17.77;;
23432;SDS011;41331;45.412;10.992;2023-02-13T14:51:45;27.63;;;16.92;;
23432;SDS011;41331;45.412;10.992;2023-02-13T14:57:15;29.83;;;18.17;;
23432;SDS011;41331;45.412;10.992;2023-02-13T14:59:57;30.42;;;16.70;;
23432;SDS011;41331;45.412;10.992;2023-02-13T15:02:32;28.05;;;17.00;;
23432;SDS011;41331;45.412;10.992;2023-02-13T15:05:05;26.90;;;15.85;;
23432;SDS011;41331;45.412;10.992;2023-02-13T15:13:16;24.95;;;16.65;;
23432;SDS011;41331;45.412;10.992;2023-02-13T15:15:53;30.27;;;17.63;;
23432;SDS011;41331;45.412;10.992;2023-02-13T15:18:27;28.17;;;17.58;;
23432;SDS011;41331;45.412;10.992;2023-02-13T15:20:57;26.30;;;17.58;;
23432;SDS011;41331;45.412;10.992;2023-02-13T15:23:28;28.60;;;17.30;;
23432;SDS011;41331;45.412;10.992;2023-02-13T15:25:58;27.48;;;17.33;;
23432;SDS011;41331;45.412;10.992;2023-02-13T15:28:28;27.45;;;17.25;;
23432;SDS011;41331;45.412;10.992;2023-02-13T15:31:00;28.83;;;17.63;;
23432;SDS011;41331;45.412;10.992;2023-02-13T15:33:33;28.88;;;16.80;;
23432;SDS011;41331;45.412;10.992;2023-02-13T15:36:12;31.25;;;17.77;;
23432;SDS011;41331;45.412;10.992;2023-02-13T15:38:43;31.90;;;17.73;;
23432;SDS011;41331;45.412;10.992;2023-02-13T15:41:12;29.38;;;17.65;;
23432;SDS011;41331;45.412;10.992;2023-02-13T15:43:49;26.17;;;16.92;;
23432;SDS011;41331;45.412;10.992;2023-02-13T15:48:57;30.90;;;17.60;;
23432;SDS011;41331;45.412;10.992;2023-02-13T15:51:30;28.98;;;17.65;;
23432;SDS011;41331;45.412;10.992;2023-02-13T15:54:06;30.55;;;17.58;;
23432;SDS011;41331;45.412;10.992;2023-02-13T15:56:47;31.33;;;18.05;;
23432;SDS011;41331;45.412;10.992;2023-02-13T15:59:16;27.42;;;17.38;;
23432;SDS011;41331;45.412;10.992;2023-02-13T16:01:44;32.88;;;17.98;;
23432;SDS011;41331;45.412;10.992;2023-02-13T16:04:14;35.00;;;17.95;;
23432;SDS011;41331;45.412;10.992;2023-02-13T16:06:44;27.25;;;17.85;;
23432;SDS011;41331;45.412;10.992;2023-02-13T16:09:22;34.97;;;17.35;;
23432;SDS011;41331;45.412;10.992;2023-02-13T16:11:55;27.60;;;17.50;;
23432;SDS011;41331;45.412;10.992;2023-02-13T16:14:26;29.40;;;18.15;;
23432;SDS011;41331;45.412;10.992;2023-02-13T16:22:32;31.17;;;18.00;;
23432;SDS011;41331;45.412;10.992;2023-02-13T16:25:16;30.10;;;18.05;;
23432;SDS011;41331;45.412;10.992;2023-02-13T16:27:49;30.10;;;17.77;;
23432;SDS011;41331;45.412;10.992;2023-02-13T16:32:47;33.22;;;18.80;;
23432;SDS011;41331;45.412;10.992;2023-02-13T16:35:16;32.70;;;19.45;;
23432;SDS011;41331;45.412;10.992;2023-02-13T16:37:59;29.52;;;18.55;;
23432;SDS011;41331;45.412;10.992;2023-02-13T16:40:32;34.08;;;20.20;;
23432;SDS011;41331;45.412;10.992;2023-02-13T16:51:46;36.40;;;20.02;;
23432;SDS011;41331;45.412;10.992;2023-02-13T16:54:20;33.53;;;19.73;;
23432;SDS011;41331;45.412;10.992;2023-02-13T17:02:14;38.92;;;20.10;;
23432;SDS011;41331;45.412;10.992;2023-02-13T17:07:26;36.60;;;18.95;;
23432;SDS011;41331;45.412;10.992;2023-02-13T17:09:58;38.75;;;20.77;;
23432;SDS011;41331;45.412;10.992;2023-02-13T17:12:33;41.30;;;20.98;;
23432;SDS011;41331;45.412;10.992;2023-02-13T17:17:33;35.83;;;20.85;;
23432;SDS011;41331;45.412;10.992;2023-02-13T17:20:00;41.85;;;20.65;;
23432;SDS011;41331;45.412;10.992;2023-02-13T17:22:34;41.25;;;20.15;;
23432;SDS011;41331;45.412;10.992;2023-02-13T17:25:05;35.58;;;20.30;;
23432;SDS011;41331;45.412;10.992;2023-02-13T17:27:42;36.60;;;20.98;;
23432;SDS011;41331;45.412;10.992;2023-02-13T17:30:16;40.88;;;21.38;;
23432;SDS011;41331;45.412;10.992;2023-02-13T17:32:46;36.90;;;20.65;;
23432;SDS011;41331;45.412;10.992;2023-02-13T17:35:15;35.38;;;20.35;;
23432;SDS011;41331;45.412;10.992;2023-02-13T17:37:43;42.50;;;23.02;;
23432;SDS011;41331;45.412;10.992;2023-02-13T17:40:14;43.35;;;22.45;;
23432;SDS011;41331;45.412;10.992;2023-02-13T17:42:46;47.50;;;23.38;;
23432;SDS011;41331;45.412;10.992;2023-02-13T17:45:24;45.20;;;23.45;;
23432;SDS011;41331;45.412;10.992;2023-02-13T17:47:54;43.05;;;23.92;;
23432;SDS011;41331;45.412;10.992;2023-02-13T17:50:24;53.60;;;26.50;;
23432;SDS011;41331;45.412;10.992;2023-02-13T17:52:56;50.15;;;24.17;;
23432;SDS011;41331;45.412;10.992;2023-02-13T17:55:28;46.13;;;24.17;;
23432;SDS011;41331;45.412;10.992;2023-02-13T18:00:28;46.00;;;25.00;;
23432;SDS011;41331;45.412;10.992;2023-02-13T18:02:58;43.80;;;23.58;;
23432;SDS011;41331;45.412;10.992;2023-02-13T18:05:27;45.60;;;24.38;;
23432;SDS011;41331;45.412;10.992;2023-02-13T18:07:55;38.67;;;23.88;;
23432;SDS011;41331;45.412;10.992;2023-02-13T18:10:24;43.10;;;24.15;;
23432;SDS011;41331;45.412;10.992;2023-02-13T18:12:54;44.60;;;24.48;;
23432;SDS011;41331;45.412;10.992;2023-02-13T18:15:23;48.58;;;24.73;;
23432;SDS011;41331;45.412;10.992;2023-02-13T18:17:50;39.88;;;23.23;;
23432;SDS011;41331;45.412;10.992;2023-02-13T18:20:18;47.10;;;24.50;;
23432;SDS011;41331;45.412;10.992;2023-02-13T18:22:47;50.22;;;25.52;;
23432;SDS011;41331;45.412;10.992;2023-02-13T18:25:18;47.93;;;26.20;;